Time;durP1;ratioP1;P1;durP2;ratioP2;P2;SDS_P1;SDS_P2;PMS_P1;PMS_P2;Temp;Humidity;BMP_temperature;BMP_pressure;BME280_temperature;BME280_humidity;BME280_pressure;Samples;Min_cycle;Max_cycle;Signal;HPM_P1;HPM_P2
2023/04/21 00:01:28;;;;;;;41.45;21.35;;;;;;;;;;5061964;28;20090;-85
2023/04/21 00:03:54;;;;;;;38.75;18.63;;;;;;;;;;5060054;28;20013;-83
2023/04/21 00:06:21;;;;;;;42.35;20.30;;;;;;;;;;5059268;28;20033;-85
2023/04/21 00:08:48;;;;;;;41.05;19.80;;;;;;;;;;5059972;28;20024;-81
2023/04/21 00:11:16;;;;;;;37.95;19.45;;;;;;;;;;5059045;28;20021;-83
2023/04/21 00:13:41;;;;;;;35.85;19.65;;;;;;;;;;5061719;28;20025;-83
2023/04/21 00:16:07;;;;;;;40.40;19.60;;;;;;;;;;5059951;28;20029;-84
2023/04/21 00:18:33;;;;;;;42.50;19.13;;;;;;;;;;5062191;28;20033;-84
2023/04/21 00:20:58;;;;;;;42.50;20.02;;;;;;;;;;5059062;28;20013;-84
2023/04/21 00:23:24;;;;;;;37.30;19.23;;;;;;;;;;5058921;28;20028;-83
2023/04/21 00:25:49;;;;;;;40.85;19.92;;;;;;;;;;5059906;28;20033;-82
2023/04/21 00:28:15;;;;;;;35.80;19.25;;;;;;;;;;5059814;28;20031;-84
2023/04/21 00:30:40;;;;;;;42.28;20.02;;;;;;;;;;5059867;28;20108;-81
2023/04/21 00:33:06;;;;;;;42.00;20.13;;;;;;;;;;5057737;28;20028;-84
2023/04/21 00:35:31;;;;;;;40.85;19.92;;;;;;;;;;5058371;28;20043;-84
2023/04/21 00:37:57;;;;;;;38.30;20.02;;;;;;;;;;5060120;28;20033;-84
2023/04/21 00:40:22;;;;;;;37.38;20.15;;;;;;;;;;5060246;28;20025;-84
2023/04/21 00:42:48;;;;;;;42.67;20.45;;;;;;;;;;5060455;28;20025;-82
2023/04/21 00:45:14;;;;;;;38.70;19.42;;;;;;;;;;5057441;28;20074;-84
2023/04/21 00:47:40;;;;;;;33.47;17.95;;;;;;;;;;5058077;28;20048;-84
2023/04/21 00:50:06;;;;;;;39.08;20.23;;;;;;;;;;5058196;28;20025;-84
2023/04/21 00:52:34;;;;;;;38.55;19.15;;;;;;;;;;5060168;28;20067;-84
2023/04/21 00:54:59;;;;;;;37.17;19.73;;;;;;;;;;5060125;28;20029;-84
2023/04/21 00:57:27;;;;;;;34.58;18.88;;;;;;;;;;5059429;28;20056;-83
2023/04/21 00:59:54;;;;;;;38.47;18.95;;;;;;;;;;5058582;28;20025;-81
2023/04/21 01:02:21;;;;;;;34.88;19.17;;;;;;;;;;5058434;28;20048;-80
2023/04/21 01:04:47;;;;;;;40.05;20.40;;;;;;;;;;5061091;28;20033;-84
2023/04/21 01:07:12;;;;;;;38.40;20.65;;;;;;;;;;5059542;28;20009;-84
2023/04/21 01:09:38;;;;;;;38.88;18.90;;;;;;;;;;5060156;28;20032;-84
2023/04/21 01:12:10;;;;;;;34.67;19.45;;;;;;;;;;5060050;28;20033;-83
2023/04/21 01:14:39;;;;;;;41.08;20.25;;;;;;;;;;5058357;28;20024;-82
2023/04/21 01:17:06;;;;;;;35.27;18.97;;;;;;;;;;5041490;28;20020;-83
2023/04/21 01:19:41;;;;;;;38.58;19.45;;;;;;;;;;5074088;28;20119;-81
2023/04/21 01:22:11;;;;;;;40.10;20.65;;;;;;;;;;5060191;28;20118;-84
2023/04/21 01:24:38;;;;;;;38.43;19.23;;;;;;;;;;5058103;28;20032;-84
2023/04/21 01:27:09;;;;;;;37.75;20.25;;;;;;;;;;5060876;28;20492;-83
2023/04/21 01:29:35;;;;;;;36.75;18.13;;;;;;;;;;5060473;28;20032;-84
2023/04/21 01:32:11;;;;;;;39.87;19.53;;;;;;;;;;5060578;28;20104;-85
2023/04/21 01:34:39;;;;;;;36.05;19.15;;;;;;;;;;5059931;28;20043;-84
2023/04/21 01:37:14;;;;;;;33.60;19.33;;;;;;;;;;5057129;28;20138;-85
2023/04/21 01:39:46;;;;;;;42.30;19.50;;;;;;;;;;5058992;28;20041;-84
2023/04/21 01:42:12;;;;;;;33.90;19.10;;;;;;;;;;5039522;28;20028;-83
2023/04/21 01:44:39;;;;;;;38.27;19.43;;;;;;;;;;5055680;28;20037;-83
2023/04/21 01:47:05;;;;;;;41.38;20.65;;;;;;;;;;5056540;28;20055;-83
2023/04/21 01:49:31;;;;;;;45.67;19.87;;;;;;;;;;5057154;28;20045;-81
2023/04/21 01:51:57;;;;;;;41.42;19.85;;;;;;;;;;5056078;28;20120;-81
2023/04/21 01:54:22;;;;;;;41.00;19.83;;;;;;;;;;5058054;28;20044;-83
2023/04/21 01:56:48;;;;;;;41.25;19.55;;;;;;;;;;5058025;28;20465;-84
2023/04/21 01:59:13;;;;;;;36.78;19.42;;;;;;;;;;5057926;28;20021;-82
2023/04/21 02:01:39;;;;;;;38.67;19.50;;;;;;;;;;5057497;28;20029;-84
2023/04/21 02:04:04;;;;;;;44.13;20.83;;;;;;;;;;5056793;28;20020;-84
2023/04/21 02:06:32;;;;;;;41.73;20.73;;;;;;;;;;5058140;28;20060;-83
2023/04/21 02:08:58;;;;;;;42.28;19.88;;;;;;;;;;5057492;28;20013;-82
2023/04/21 02:11:24;;;;;;;34.88;19.25;;;;;;;;;;5057233;28;20100;-82
2023/04/21 02:13:54;;;;;;;37.83;18.87;;;;;;;;;;5056365;28;20021;-84
2023/04/21 02:16:20;;;;;;;37.37;20.50;;;;;;;;;;5056212;28;20374;-83
2023/04/21 02:18:47;;;;;;;40.03;18.67;;;;;;;;;;5056056;28;20025;-84
2023/04/21 02:21:13;;;;;;;40.03;20.57;;;;;;;;;;5057170;28;20074;-84
2023/04/21 02:23:38;;;;;;;40.60;20.27;;;;;;;;;;5055294;28;20029;-81
2023/04/21 02:26:04;;;;;;;38.90;20.57;;;;;;;;;;5056965;28;20048;-84
2023/04/21 02:28:30;;;;;;;44.30;20.53;;;;;;;;;;5055111;28;20025;-83
2023/04/21 02:30:56;;;;;;;41.73;20.47;;;;;;;;;;5060902;28;20051;-84
2023/04/21 02:33:21;;;;;;;44.63;20.50;;;;;;;;;;5058202;28;20433;-83
2023/04/21 02:35:47;;;;;;;38.22;18.52;;;;;;;;;;5059548;28;20032;-82
2023/04/21 02:38:12;;;;;;;44.27;20.83;;;;;;;;;;5058344;28;20115;-85
2023/04/21 02:40:38;;;;;;;45.70;19.87;;;;;;;;;;5060033;28;20033;-84
2023/04/21 02:43:03;;;;;;;36.63;18.95;;;;;;;;;;5043023;28;20099;-84
2023/04/21 02:45:29;;;;;;;37.70;19.03;;;;;;;;;;5058989;28;20091;-84
2023/04/21 02:47:54;;;;;;;39.23;20.17;;;;;;;;;;5059614;28;20131;-85
2023/04/21 02:50:20;;;;;;;43.43;19.90;;;;;;;;;;5060158;28;20013;-84
2023/04/21 02:52:45;;;;;;;43.42;19.60;;;;;;;;;;5058002;28;20032;-84
2023/04/21 02:55:12;;;;;;;35.58;18.48;;;;;;;;;;5060372;28;20435;-81
2023/04/21 02:57:38;;;;;;;39.53;20.47;;;;;;;;;;5058368;28;20029;-84
2023/04/21 03:00:06;;;;;;;41.37;20.00;;;;;;;;;;5060186;28;20048;-84
2023/04/21 03:02:31;;;;;;;37.87;19.67;;;;;;;;;;5059831;28;20384;-83
2023/04/21 03:04:57;;;;;;;37.73;19.73;;;;;;;;;;5058493;28;20025;-84
2023/04/21 03:07:22;;;;;;;39.38;18.65;;;;;;;;;;5058736;28;20029;-84
2023/04/21 03:09:48;;;;;;;48.67;20.20;;;;;;;;;;5060193;28;20029;-84
2023/04/21 03:12:13;;;;;;;40.90;19.50;;;;;;;;;;5058484;28;20019;-84
2023/04/21 03:14:41;;;;;;;35.77;18.27;;;;;;;;;;5059851;28;20037;-84
2023/04/21 03:17:06;;;;;;;35.50;18.73;;;;;;;;;;5060216;28;20024;-82
2023/04/21 03:19:32;;;;;;;40.80;19.03;;;;;;;;;;5058466;28;20051;-83
2023/04/21 03:21:57;;;;;;;38.13;19.00;;;;;;;;;;5058438;28;20040;-84
2023/04/21 03:24:23;;;;;;;40.27;20.60;;;;;;;;;;5060067;28;20049;-83
2023/04/21 03:26:48;;;;;;;47.17;19.63;;;;;;;;;;5058956;28;20032;-83
2023/04/21 03:29:14;;;;;;;43.40;19.50;;;;;;;;;;5059061;28;20032;-83
2023/04/21 03:31:39;;;;;;;42.17;19.70;;;;;;;;;;5058985;28;20098;-83
2023/04/21 03:34:05;;;;;;;48.80;20.00;;;;;;;;;;5058140;28;20047;-84
2023/04/21 03:36:31;;;;;;;34.40;19.53;;;;;;;;;;5057617;28;20032;-84
2023/04/21 03:38:57;;;;;;;38.77;18.33;;;;;;;;;;5056433;28;20139;-83
2023/04/21 03:41:23;;;;;;;39.13;18.97;;;;;;;;;;5055154;28;20584;-83
2023/04/21 03:43:51;;;;;;;39.40;19.80;;;;;;;;;;5057968;28;20029;-84
2023/04/21 03:46:21;;;;;;;38.67;17.53;;;;;;;;;;5058673;28;20029;-84
2023/04/21 03:48:47;;;;;;;38.55;19.17;;;;;;;;;;5058889;28;20049;-84
2023/04/21 03:51:13;;;;;;;40.47;18.90;;;;;;;;;;5058734;28;20451;-84
2023/04/21 03:53:39;;;;;;;38.00;18.63;;;;;;;;;;5058971;28;20033;-83
2023/04/21 03:56:05;;;;;;;36.70;17.97;;;;;;;;;;5074534;28;20017;-84
2023/04/21 03:58:30;;;;;;;29.77;17.63;;;;;;;;;;5059596;28;20071;-84
2023/04/21 04:00:56;;;;;;;31.33;17.90;;;;;;;;;;5042099;28;20036;-83
2023/04/21 04:03:21;;;;;;;36.90;17.87;;;;;;;;;;5058359;28;20009;-85
2023/04/21 04:05:47;;;;;;;37.40;18.07;;;;;;;;;;5059839;28;20092;-84
2023/04/21 04:08:12;;;;;;;33.80;17.55;;;;;;;;;;5058534;28;20357;-85
2023/04/21 04:10:38;;;;;;;44.53;17.37;;;;;;;;;;5058503;28;20032;-84
2023/04/21 04:13:03;;;;;;;38.23;18.53;;;;;;;;;;5059536;28;20353;-84
2023/04/21 04:15:29;;;;;;;41.23;20.60;;;;;;;;;;5056529;28;20039;-83
2023/04/21 04:17:56;;;;;;;38.17;17.50;;;;;;;;;;5059286;28;20048;-84
2023/04/21 04:20:21;;;;;;;34.47;17.80;;;;;;;;;;5056881;28;20036;-83
2023/04/21 04:22:47;;;;;;;31.47;17.30;;;;;;;;;;5058833;28;20024;-85
2023/04/21 04:25:15;;;;;;;31.73;17.67;;;;;;;;;;5059363;28;20024;-83
2023/04/21 04:27:43;;;;;;;33.20;17.90;;;;;;;;;;5060552;28;20108;-84
2023/04/21 04:30:10;;;;;;;37.13;18.60;;;;;;;;;;5059046;28;20021;-84
2023/04/21 04:32:38;;;;;;;34.30;17.67;;;;;;;;;;5059166;28;20102;-84
2023/04/21 04:35:09;;;;;;;32.43;18.00;;;;;;;;;;5058434;28;20056;-84
2023/04/21 04:37:36;;;;;;;35.25;17.73;;;;;;;;;;5059462;28;20029;-82
2023/04/21 04:40:04;;;;;;;39.33;16.90;;;;;;;;;;5058381;28;20036;-83
2023/04/21 04:42:31;;;;;;;33.77;17.60;;;;;;;;;;5059686;28;20024;-83
2023/04/21 04:44:58;;;;;;;34.43;17.10;;;;;;;;;;5056586;28;20025;-82
2023/04/21 04:47:25;;;;;;;34.57;17.60;;;;;;;;;;5053857;28;20029;-82
2023/04/21 04:49:50;;;;;;;39.77;19.17;;;;;;;;;;5065734;28;20376;-81
2023/04/21 04:52:16;;;;;;;32.77;17.30;;;;;;;;;;5050114;28;20032;-82
2023/04/21 04:54:41;;;;;;;33.13;17.50;;;;;;;;;;5054448;28;20025;-81
2023/04/21 04:57:07;;;;;;;35.38;17.77;;;;;;;;;;5053998;28;20032;-81
2023/04/21 04:59:32;;;;;;;31.17;15.98;;;;;;;;;;5039502;28;20025;-80
2023/04/21 05:01:58;;;;;;;35.50;17.17;;;;;;;;;;5049511;28;20021;-81
2023/04/21 05:04:24;;;;;;;40.53;20.02;;;;;;;;;;5051176;28;20029;-81
2023/04/21 05:06:50;;;;;;;44.93;19.37;;;;;;;;;;5055034;28;20429;-80
2023/04/21 05:09:17;;;;;;;32.47;17.00;;;;;;;;;;5056514;28;20398;-82
2023/04/21 05:11:42;;;;;;;43.30;20.83;;;;;;;;;;5048209;28;20040;-81
2023/04/21 05:14:08;;;;;;;35.10;18.47;;;;;;;;;;5053161;28;20488;-80
2023/04/21 05:16:33;;;;;;;34.88;18.65;;;;;;;;;;5070047;28;20028;-80
2023/04/21 05:19:03;;;;;;;32.63;18.33;;;;;;;;;;5055142;28;20029;-85
2023/04/21 05:21:30;;;;;;;40.67;19.00;;;;;;;;;;5047746;28;20120;-83
2023/04/21 05:23:57;;;;;;;38.95;19.10;;;;;;;;;;5056091;28;20468;-82
2023/04/21 05:26:23;;;;;;;47.17;19.77;;;;;;;;;;5051839;28;20028;-82
2023/04/21 05:28:49;;;;;;;38.53;17.80;;;;;;;;;;5068781;28;20025;-83
2023/04/21 05:31:15;;;;;;;40.45;19.20;;;;;;;;;;5046139;28;20025;-84
2023/04/21 05:33:43;;;;;;;48.30;19.35;;;;;;;;;;5054759;28;20171;-85
2023/04/21 05:36:09;;;;;;;37.10;18.35;;;;;;;;;;5066168;28;20673;-79
2023/04/21 05:38:36;;;;;;;31.42;17.48;;;;;;;;;;5040959;28;20075;-81
2023/04/21 05:41:02;;;;;;;38.08;16.92;;;;;;;;;;5050562;28;20497;-80
2023/04/21 05:43:28;;;;;;;36.17;17.45;;;;;;;;;;5032559;28;20033;-80
2023/04/21 05:45:53;;;;;;;36.17;17.80;;;;;;;;;;5038751;28;20037;-80
2023/04/21 05:48:19;;;;;;;34.20;18.00;;;;;;;;;;5042388;28;20061;-82
2023/04/21 05:50:47;;;;;;;39.28;17.77;;;;;;;;;;5047732;28;20060;-82
2023/04/21 05:53:13;;;;;;;33.15;15.13;;;;;;;;;;5063682;28;20420;-78
2023/04/21 05:55:38;;;;;;;28.33;12.65;;;;;;;;;;5045407;28;20102;-81
2023/04/21 05:58:04;;;;;;;23.75;12.75;;;;;;;;;;5045946;28;20043;-80
2023/04/21 06:00:29;;;;;;;32.03;15.07;;;;;;;;;;5040969;28;20056;-80
2023/04/21 06:02:55;;;;;;;25.10;13.68;;;;;;;;;;5051883;28;20029;-79
2023/04/21 06:05:21;;;;;;;30.58;15.02;;;;;;;;;;5050349;28;20035;-82
2023/04/21 06:07:46;;;;;;;26.05;13.00;;;;;;;;;;5043553;28;20528;-82
2023/04/21 06:10:13;;;;;;;23.15;12.73;;;;;;;;;;5056264;28;20062;-81
2023/04/21 06:12:39;;;;;;;32.80;14.13;;;;;;;;;;5055074;28;20101;-80
2023/04/21 06:15:05;;;;;;;28.13;13.73;;;;;;;;;;5049818;28;20037;-83
2023/04/21 06:17:31;;;;;;;27.13;14.40;;;;;;;;;;5065695;28;20119;-80
2023/04/21 06:19:56;;;;;;;26.40;12.93;;;;;;;;;;5051610;28;20088;-79
2023/04/21 06:22:22;;;;;;;30.33;14.27;;;;;;;;;;5052378;28;20449;-81
2023/04/21 06:24:48;;;;;;;29.25;12.38;;;;;;;;;;5051884;28;20373;-80
2023/04/21 06:27:14;;;;;;;18.90;10.85;;;;;;;;;;5046690;28;20071;-80
2023/04/21 06:29:41;;;;;;;29.92;13.00;;;;;;;;;;5055575;28;20249;-80
2023/04/21 06:32:07;;;;;;;52.72;24.73;;;;;;;;;;5067770;28;20039;-81
2023/04/21 06:34:32;;;;;;;25.55;12.80;;;;;;;;;;5044681;28;20020;-79
2023/04/21 06:36:58;;;;;;;28.13;10.75;;;;;;;;;;5048135;28;20109;-79
2023/04/21 06:39:24;;;;;;;24.50;11.25;;;;;;;;;;5048544;28;20037;-81
2023/04/21 06:41:49;;;;;;;24.50;10.48;;;;;;;;;;5058122;28;20092;-85
2023/04/21 06:44:15;;;;;;;29.55;11.98;;;;;;;;;;5057419;28;20022;-85
2023/04/21 06:46:41;;;;;;;25.95;10.10;;;;;;;;;;5070453;28;20032;-83
2023/04/21 06:49:07;;;;;;;23.63;10.38;;;;;;;;;;5060505;28;20469;-83
2023/04/21 06:51:33;;;;;;;22.63;11.55;;;;;;;;;;5071982;28;20096;-81
2023/04/21 06:53:59;;;;;;;25.13;10.88;;;;;;;;;;5060902;28;20048;-84
2023/04/21 06:56:29;;;;;;;21.60;10.20;;;;;;;;;;5057899;28;20419;-80
2023/04/21 06:58:55;;;;;;;25.45;11.13;;;;;;;;;;5058930;28;20025;-81
2023/04/21 07:01:23;;;;;;;26.75;11.05;;;;;;;;;;5044079;28;20147;-87
2023/04/21 07:03:49;;;;;;;20.45;10.18;;;;;;;;;;5065452;28;20060;-81
2023/04/21 07:06:15;;;;;;;22.30;9.70;;;;;;;;;;5055110;28;20063;-85
2023/04/21 07:08:40;;;;;;;24.63;10.25;;;;;;;;;;5046862;28;20029;-81
2023/04/21 07:11:06;;;;;;;24.38;10.40;;;;;;;;;;5044254;28;20025;-80
2023/04/21 07:13:32;;;;;;;18.10;8.75;;;;;;;;;;5046459;28;20152;-78
2023/04/21 07:15:57;;;;;;;19.67;9.27;;;;;;;;;;5048449;28;20032;-80
2023/04/21 07:18:23;;;;;;;18.02;7.78;;;;;;;;;;5046906;28;20033;-80
2023/04/21 07:20:48;;;;;;;14.27;6.97;;;;;;;;;;5041320;28;20576;-80
2023/04/21 07:23:14;;;;;;;19.40;9.00;;;;;;;;;;5040385;28;20047;-82
2023/04/21 07:25:39;;;;;;;18.85;8.35;;;;;;;;;;5061381;28;20118;-81
2023/04/21 07:28:05;;;;;;;20.40;8.88;;;;;;;;;;5051501;28;20056;-81
2023/04/21 07:30:31;;;;;;;20.52;8.77;;;;;;;;;;5044860;28;20029;-79
2023/04/21 07:32:57;;;;;;;18.00;9.27;;;;;;;;;;5047060;28;20049;-80
2023/04/21 07:35:24;;;;;;;20.77;8.52;;;;;;;;;;5054475;28;20033;-85
2023/04/21 07:37:50;;;;;;;20.70;8.70;;;;;;;;;;5046854;28;20035;-82
2023/04/21 07:40:15;;;;;;;16.05;8.48;;;;;;;;;;5050242;28;20349;-79
2023/04/21 07:42:42;;;;;;;16.23;8.63;;;;;;;;;;5048036;28;20037;-81
2023/04/21 07:45:08;;;;;;;15.45;8.65;;;;;;;;;;5047886;28;20044;-80
2023/04/21 07:47:34;;;;;;;17.05;8.30;;;;;;;;;;5062716;28;20045;-79
2023/04/21 07:50:00;;;;;;;16.05;8.57;;;;;;;;;;5046778;28;20034;-82
2023/04/21 07:52:25;;;;;;;19.17;8.98;;;;;;;;;;5045239;28;20025;-82
2023/04/21 07:54:51;;;;;;;11.77;8.07;;;;;;;;;;5049933;28;20071;-81
2023/04/21 07:57:16;;;;;;;24.42;9.52;;;;;;;;;;5043989;28;20037;-81
2023/04/21 07:59:42;;;;;;;14.30;8.52;;;;;;;;;;5048260;28;20405;-79
2023/04/21 08:02:08;;;;;;;18.13;9.20;;;;;;;;;;5063764;28;20043;-80
2023/04/21 08:04:34;;;;;;;21.75;9.82;;;;;;;;;;5064350;28;20048;-81
2023/04/21 08:07:00;;;;;;;19.17;9.43;;;;;;;;;;5044378;28;20315;-82
2023/04/21 08:09:26;;;;;;;17.48;8.32;;;;;;;;;;5051792;28;20043;-80
2023/04/21 08:11:52;;;;;;;12.77;8.00;;;;;;;;;;5029395;28;20717;-80
2023/04/21 08:14:18;;;;;;;21.13;10.77;;;;;;;;;;5048542;28;20389;-79
2023/04/21 08:16:44;;;;;;;17.95;8.27;;;;;;;;;;5042995;28;20017;-82
2023/04/21 08:19:09;;;;;;;15.80;8.45;;;;;;;;;;5046128;28;20033;-81
2023/04/21 08:21:36;;;;;;;13.57;8.45;;;;;;;;;;5064628;28;20029;-80
2023/04/21 08:24:01;;;;;;;16.95;8.75;;;;;;;;;;5046882;28;20044;-82
2023/04/21 08:26:28;;;;;;;17.80;8.10;;;;;;;;;;5047975;28;20434;-82
2023/04/21 08:28:55;;;;;;;21.52;10.25;;;;;;;;;;5032047;28;20034;-80
2023/04/21 08:31:21;;;;;;;16.80;8.80;;;;;;;;;;5044682;28;20040;-80
2023/04/21 08:33:47;;;;;;;19.80;9.32;;;;;;;;;;5051008;28;20052;-82
2023/04/21 08:36:13;;;;;;;20.40;9.68;;;;;;;;;;5049808;28;20025;-88
2023/04/21 08:38:42;;;;;;;17.63;8.82;;;;;;;;;;5054717;28;20029;-83
2023/04/21 08:41:08;;;;;;;15.48;8.90;;;;;;;;;;5048070;28;20041;-80
2023/04/21 08:43:33;;;;;;;18.83;9.50;;;;;;;;;;5053677;28;20021;-82
2023/04/21 08:46:02;;;;;;;20.05;9.40;;;;;;;;;;5049625;28;20120;-82
2023/04/21 08:48:29;;;;;;;22.88;9.23;;;;;;;;;;5049799;28;20049;-83
2023/04/21 08:50:55;;;;;;;17.67;8.50;;;;;;;;;;5030874;28;20110;-80
2023/04/21 08:53:21;;;;;;;23.63;10.13;;;;;;;;;;5042304;28;20051;-82
2023/04/21 08:55:51;;;;;;;17.98;8.30;;;;;;;;;;5046224;28;20492;-80
2023/04/21 08:58:17;;;;;;;16.15;8.13;;;;;;;;;;5044847;28;20033;-81
2023/04/21 09:00:43;;;;;;;18.90;8.75;;;;;;;;;;5049324;28;20027;-81
2023/04/21 09:03:09;;;;;;;15.48;8.93;;;;;;;;;;5049265;28;20041;-83
2023/04/21 09:05:36;;;;;;;16.85;8.02;;;;;;;;;;5049044;28;20029;-80
2023/04/21 09:08:12;;;;;;;20.63;8.30;;;;;;;;;;5028518;28;20490;-80
2023/04/21 09:10:48;;;;;;;14.15;8.20;;;;;;;;;;5048974;28;20036;-81
2023/04/21 09:13:14;;;;;;;12.13;8.18;;;;;;;;;;5051273;28;20060;-84
2023/04/21 09:15:41;;;;;;;13.80;7.93;;;;;;;;;;5056138;28;20029;-85
2023/04/21 09:18:33;;;;;;;15.90;7.88;;;;;;;;;;5032958;28;20060;-83
2023/04/21 09:21:14;;;;;;;16.67;7.65;;;;;;;;;;5045180;28;20033;-83
2023/04/21 09:23:54;;;;;;;12.88;7.50;;;;;;;;;;5050044;28;20031;-82
2023/04/21 09:26:23;;;;;;;13.30;6.45;;;;;;;;;;5043081;28;20030;-85
2023/04/21 09:28:50;;;;;;;15.52;7.68;;;;;;;;;;5046509;28;20527;-81
2023/04/21 09:31:27;;;;;;;16.60;6.55;;;;;;;;;;5048887;28;20036;-82
2023/04/21 09:33:55;;;;;;;13.90;6.43;;;;;;;;;;5050963;28;20119;-82
2023/04/21 09:36:23;;;;;;;12.18;6.53;;;;;;;;;;5048459;28;20082;-83
2023/04/21 09:38:58;;;;;;;12.73;6.35;;;;;;;;;;5047151;28;20025;-81
2023/04/21 09:41:24;;;;;;;10.45;6.25;;;;;;;;;;5049962;28;20032;-80
2023/04/21 09:43:50;;;;;;;13.60;7.47;;;;;;;;;;5051742;28;20033;-79
2023/04/21 09:46:17;;;;;;;18.70;7.70;;;;;;;;;;5041500;28;20041;-78
2023/04/21 09:48:45;;;;;;;15.75;8.32;;;;;;;;;;5039988;28;20037;-78
2023/04/21 09:51:16;;;;;;;9.60;5.80;;;;;;;;;;5068078;28;20492;-78
2023/04/21 09:53:43;;;;;;;;;;;;;;;;;;5055487;28;20380;-80
2023/04/21 09:56:11;;;;;;;15.68;7.25;;;;;;;;;;5048775;28;20058;-78
2023/04/21 09:58:51;;;;;;;14.65;7.20;;;;;;;;;;5051690;28;20025;-80
2023/04/21 10:01:18;;;;;;;15.65;7.10;;;;;;;;;;5057321;28;20412;-82
2023/04/21 10:03:45;;;;;;;21.63;7.88;;;;;;;;;;5049636;28;20040;-80
2023/04/21 10:06:11;;;;;;;14.75;6.82;;;;;;;;;;5051643;28;20044;-82
2023/04/21 10:08:38;;;;;;;11.30;6.78;;;;;;;;;;5045288;28;20025;-84
2023/04/21 10:11:05;;;;;;;14.45;6.00;;;;;;;;;;5052861;28;20024;-81
2023/04/21 10:13:31;;;;;;;18.90;7.22;;;;;;;;;;5057709;28;20036;-83
2023/04/21 10:16:07;;;;;;;15.88;7.10;;;;;;;;;;5057231;28;20052;-81
2023/04/21 10:18:41;;;;;;;16.75;7.45;;;;;;;;;;5056838;28;20025;-80
2023/04/21 10:21:11;;;;;;;15.23;6.13;;;;;;;;;;5050188;28;20037;-81
2023/04/21 10:23:52;;;;;;;13.15;6.85;;;;;;;;;;5045974;28;20025;-81
2023/04/21 10:26:28;;;;;;;14.85;6.22;;;;;;;;;;5042724;28;20039;-82
2023/04/21 10:29:01;;;;;;;14.88;5.90;;;;;;;;;;5054924;28;20021;-81
2023/04/21 10:31:42;;;;;;;13.57;6.13;;;;;;;;;;5045643;28;20087;-81
2023/04/21 10:34:11;;;;;;;11.02;6.03;;;;;;;;;;5050614;28;20036;-79
2023/04/21 10:36:58;;;;;;;11.43;5.60;;;;;;;;;;5055926;28;20392;-81
2023/04/21 10:39:35;;;;;;;13.65;5.63;;;;;;;;;;5046512;28;20060;-80
2023/04/21 10:42:19;;;;;;;8.13;4.70;;;;;;;;;;5048793;28;20085;-83
2023/04/21 10:45:00;;;;;;;17.50;8.55;;;;;;;;;;5048283;28;20026;-81
2023/04/21 10:47:42;;;;;;;7.47;4.50;;;;;;;;;;5053909;28;20025;-81
2023/04/21 10:50:15;;;;;;;8.38;4.75;;;;;;;;;;5051300;28;20056;-80
2023/04/21 10:53:11;;;;;;;12.23;4.88;;;;;;;;;;5057573;28;20102;-82
2023/04/21 10:55:37;;;;;;;6.97;4.35;;;;;;;;;;5053639;28;20596;-81
2023/04/21 10:58:07;;;;;;;14.15;4.68;;;;;;;;;;5044044;28;22105;-80
2023/04/21 11:00:37;;;;;;;12.77;4.85;;;;;;;;;;5048816;28;20053;-79
2023/04/21 11:03:06;;;;;;;6.53;3.50;;;;;;;;;;5051173;28;20060;-81
2023/04/21 11:05:40;;;;;;;10.52;4.35;;;;;;;;;;5050280;28;20131;-82
2023/04/21 11:08:12;;;;;;;9.10;5.32;;;;;;;;;;5051653;28;20064;-80
2023/04/21 11:10:46;;;;;;;11.75;4.68;;;;;;;;;;5049837;28;20087;-80
2023/04/21 11:13:14;;;;;;;15.30;4.32;;;;;;;;;;5048592;28;20028;-81
2023/04/21 11:15:40;;;;;;;11.35;3.92;;;;;;;;;;5050018;28;20036;-79
2023/04/21 11:18:07;;;;;;;7.35;3.00;;;;;;;;;;5051502;28;20029;-81
2023/04/21 11:20:33;;;;;;;8.27;3.30;;;;;;;;;;5046561;28;20441;-79
2023/04/21 11:23:02;;;;;;;10.07;3.63;;;;;;;;;;5066548;28;20025;-82
2023/04/21 11:25:29;;;;;;;10.57;4.50;;;;;;;;;;5048973;28;20064;-79
2023/04/21 11:28:03;;;;;;;7.70;3.53;;;;;;;;;;5033189;28;20045;-79
2023/04/21 11:30:35;;;;;;;10.55;3.10;;;;;;;;;;5051443;28;20056;-80
2023/04/21 11:33:02;;;;;;;5.35;3.63;;;;;;;;;;5061774;28;20085;-81
2023/04/21 11:35:30;;;;;;;13.13;3.90;;;;;;;;;;5050206;28;20033;-81
2023/04/21 11:37:55;;;;;;;12.55;3.58;;;;;;;;;;5051250;28;20029;-80
2023/04/21 11:40:21;;;;;;;8.93;3.85;;;;;;;;;;5051473;28;20083;-79
2023/04/21 11:42:47;;;;;;;6.85;2.88;;;;;;;;;;5053939;28;20025;-81
2023/04/21 11:45:20;;;;;;;7.25;2.83;;;;;;;;;;5053194;28;20112;-80
2023/04/21 11:47:46;;;;;;;5.35;2.95;;;;;;;;;;5043384;28;20049;-81
2023/04/21 11:50:33;;;;;;;7.05;3.17;;;;;;;;;;5053572;28;20025;-81
2023/04/21 11:53:01;;;;;;;7.80;2.63;;;;;;;;;;5049378;28;20443;-79
2023/04/21 11:55:27;;;;;;;12.10;4.72;;;;;;;;;;5048257;28;20029;-81
2023/04/21 11:57:56;;;;;;;10.63;3.33;;;;;;;;;;5048590;28;20035;-80
2023/04/21 12:00:22;;;;;;;10.18;3.38;;;;;;;;;;5024966;28;20097;-83
2023/04/21 12:02:55;;;;;;;8.48;2.60;;;;;;;;;;5041924;28;20120;-84
2023/04/21 12:05:22;;;;;;;11.10;2.92;;;;;;;;;;5063763;28;20029;-85
2023/04/21 12:07:48;;;;;;;11.68;3.50;;;;;;;;;;5048313;28;20028;-79
2023/04/21 12:10:18;;;;;;;15.55;3.03;;;;;;;;;;5052981;28;20021;-82
2023/04/21 12:12:44;;;;;;;5.88;2.50;;;;;;;;;;5054463;28;20174;-86
2023/04/21 12:15:12;;;;;;;6.38;3.03;;;;;;;;;;5053944;28;20428;-84
2023/04/21 12:17:38;;;;;;;15.20;3.20;;;;;;;;;;5046829;28;20033;-83
2023/04/21 12:20:08;;;;;;;12.43;4.45;;;;;;;;;;5054465;28;20025;-84
2023/04/21 12:22:34;;;;;;;12.85;2.80;;;;;;;;;;5048762;28;20025;-83
2023/04/21 12:25:00;;;;;;;14.10;3.42;;;;;;;;;;5053811;28;20029;-85
2023/04/21 12:27:26;;;;;;;14.32;3.10;;;;;;;;;;5038507;28;20029;-84
2023/04/21 12:29:54;;;;;;;16.17;3.28;;;;;;;;;;5055335;28;20036;-87
2023/04/21 12:32:20;;;;;;;10.50;3.10;;;;;;;;;;5051536;28;20040;-82
2023/04/21 12:34:46;;;;;;;6.03;2.67;;;;;;;;;;5051282;28;20029;-79
2023/04/21 12:37:12;;;;;;;12.30;3.35;;;;;;;;;;5048761;28;20028;-83
2023/04/21 12:39:37;;;;;;;8.57;2.95;;;;;;;;;;5045180;28;20493;-83
2023/04/21 12:42:08;;;;;;;8.85;2.95;;;;;;;;;;5065623;28;20025;-82
2023/04/21 12:44:34;;;;;;;7.88;3.45;;;;;;;;;;5037808;28;20597;-84
2023/04/21 12:47:01;;;;;;;10.35;2.95;;;;;;;;;;5036928;28;20095;-82
2023/04/21 12:49:27;;;;;;;14.82;3.13;;;;;;;;;;5038692;28;20257;-85
2023/04/21 12:51:53;;;;;;;11.73;2.38;;;;;;;;;;5053850;28;20021;-83
2023/04/21 12:54:18;;;;;;;11.93;3.47;;;;;;;;;;5044390;28;20124;-81
2023/04/21 12:56:44;;;;;;;14.68;3.20;;;;;;;;;;5049852;28;20029;-84
2023/04/21 12:59:10;;;;;;;8.10;2.28;;;;;;;;;;5049716;28;20508;-82
2023/04/21 13:01:37;;;;;;;11.35;3.40;;;;;;;;;;5050792;28;20056;-80
2023/04/21 13:04:03;;;;;;;14.45;3.28;;;;;;;;;;5054321;28;20044;-82
2023/04/21 13:06:30;;;;;;;12.70;3.03;;;;;;;;;;5052657;28;20104;-82
2023/04/21 13:09:03;;;;;;;11.60;2.90;;;;;;;;;;5052321;28;20431;-83
2023/04/21 13:11:29;;;;;;;10.65;4.38;;;;;;;;;;5051875;28;20032;-82
2023/04/21 13:13:54;;;;;;;9.07;3.08;;;;;;;;;;5055761;28;20119;-83
2023/04/21 13:16:20;;;;;;;18.40;3.58;;;;;;;;;;5056673;28;20021;-83
2023/04/21 13:18:46;;;;;;;6.22;2.90;;;;;;;;;;5052918;28;20114;-84
2023/04/21 13:21:12;;;;;;;9.85;3.67;;;;;;;;;;5052479;28;20021;-81
2023/04/21 13:23:55;;;;;;;5.53;2.92;;;;;;;;;;5051798;28;20029;-82
2023/04/21 13:26:21;;;;;;;14.55;3.67;;;;;;;;;;5046217;28;20480;-81
2023/04/21 13:28:46;;;;;;;11.98;3.08;;;;;;;;;;5052465;28;20025;-80
2023/04/21 13:31:13;;;;;;;15.00;3.15;;;;;;;;;;5047396;28;20080;-79
2023/04/21 13:33:40;;;;;;;5.95;2.13;;;;;;;;;;5045000;28;20029;-81
2023/04/21 13:36:08;;;;;;;12.30;3.00;;;;;;;;;;5030320;28;20025;-84
2023/04/21 13:38:46;;;;;;;9.20;2.83;;;;;;;;;;5048554;28;20040;-82
2023/04/21 13:41:13;;;;;;;12.32;2.53;;;;;;;;;;5046823;28;20079;-81
2023/04/21 13:43:40;;;;;;;22.25;7.68;;;;;;;;;;5053271;28;20417;-80
2023/04/21 13:46:05;;;;;;;20.55;4.15;;;;;;;;;;5050374;28;20028;-82
2023/04/21 13:48:31;;;;;;;15.73;3.38;;;;;;;;;;5044057;28;20584;-80
2023/04/21 13:50:58;;;;;;;15.57;3.67;;;;;;;;;;5051178;28;20021;-80
2023/04/21 13:53:23;;;;;;;10.45;2.45;;;;;;;;;;5050409;28;20028;-81
2023/04/21 13:55:49;;;;;;;13.25;3.40;;;;;;;;;;5050868;28;20580;-81
2023/04/21 13:58:15;;;;;;;9.95;3.35;;;;;;;;;;5048445;28;21178;-80
2023/04/21 14:00:41;;;;;;;9.75;2.83;;;;;;;;;;5066989;28;20036;-80
2023/04/21 14:03:08;;;;;;;8.60;2.88;;;;;;;;;;5054663;28;20521;-81
2023/04/21 14:05:34;;;;;;;8.45;2.75;;;;;;;;;;5051975;28;20031;-81
2023/04/21 14:08:00;;;;;;;7.85;3.65;;;;;;;;;;5066551;28;20021;-79
2023/04/21 14:10:26;;;;;;;9.95;3.50;;;;;;;;;;5051958;28;20028;-83
2023/04/21 14:12:52;;;;;;;8.20;3.55;;;;;;;;;;5050448;28;20091;-82
2023/04/21 14:15:17;;;;;;;18.08;9.68;;;;;;;;;;5048179;28;20033;-81
2023/04/21 14:17:43;;;;;;;7.93;3.55;;;;;;;;;;5042377;28;20114;-82
2023/04/21 14:20:09;;;;;;;12.27;6.03;;;;;;;;;;5051166;28;20108;-81
2023/04/21 14:22:35;;;;;;;12.32;4.25;;;;;;;;;;5053747;28;20027;-80
2023/04/21 14:25:00;;;;;;;10.32;3.13;;;;;;;;;;5052154;28;20099;-81
2023/04/21 14:27:26;;;;;;;8.88;3.17;;;;;;;;;;5055128;28;20086;-80